NEODyS-2

Near Earth Objects - Dynamic Site
NEODyS ∴ Observatories ∴ Site 691 ∴ Obs & residuals
Contact »
691  ▹ 
OBSERVATIONS AND RESIDUALS

691-Steward Observatory, Kitt Peak-Spacewatch

Detections | Residuals | Detections & Residuals

[1-200] [201-400] [401-600] [601-800] [801-1000] [1001-1200] [1201-1400] [1401-1600] [1601-1800] [1801-2000] [2001-2200] [2201-2400] [2401-2600] [2601-2800] [2801-3000] [3001-3200] [3201-3400] [3401-3600] [3601-3800] [3801-4000] [4001-4200] [4201-4400] [4401-4600] [4601-4800] [4801-5000] [5001-5200] [5201-5400] [5401-5600] [5601-5800] [5801-6000] [6001-6200] [6201-6400] [6401-6600] [6601-6800] [6801-7000] [7001-7200] [7201-7400] [7401-7600] [7601-7800] [7801-8000] [8001-8200] [8201-8400] [8401-8600] [8601-8800] [8801-9000] [9001-9200] [9201-9400] [9401-9600] [9601-9800] [9801-10000] [10001-10200] [10201-10400] [10401-10600] [10601-10800] [10801-11000] [11001-11200] [11201-11400] [11401-11600] [11601-11800] [11801-12000] [12001-12200] [12201-12400] [12401-12600] [12601-12800] [12801-13000] [13001-13200] [13201-13400] [13401-13600] [13601-13800] [13801-14000] [14001-14200] [14201-14400] [14401-14600] [14601-14800] [14801-15000] [15001-15200] [15201-15400] [15401-15600] [15601-15800] [15801-16000] [16001-16200] [16201-16400] [16401-16600] [16601-16800] [16801-17000] [17001-17200] [17201-17400] [17401-17600] [17601-17800] [17801-18000] [18001-18200] [18201-18400] [18401-18600] [18601-18800] [18801-19000] [19001-19200] [19201-19400] [19401-19600] [19601-19800] [19801-20000] [20001-20200] [20201-20400] [20401-20600] [20601-20800] [20801-21000] [21001-21200] [21201-21400] [21401-21600] [21601-21800] [21801-22000] [22001-22200] [22201-22400] [22401-22600] [22601-22800] [22801-23000] [23001-23200] [23201-23400] [23401-23600] [23601-23800] [23801-24000] [24001-24200] [24201-24400] [24401-24600] [24601-24800] [24801-25000] [25001-25200] [25201-25400] [25401-25600] [25601-25800] [25801-26000] [26001-26200] [26201-26400] [26401-26600] [26601-26800] [26801-27000] [27001-27200] [27201-27400] [27401-27600] [27601-27800] [27801-28000] [28001-28200] [28201-28400] [28401-28600] [28601-28800] [28801-29000] [29001-29200] [29201-29400] [29401-29600] [29601-29800] [29801-30000] [30001-30200] [30201-30400] [30401-30600] [30601-30800] [30801-31000] [31001-31200] [31201-31400] [31401-31600] [31601-31800] [31801-32000] [32001-32200] [32201-32400] [32401-32600] [32601-32800] [32801-33000] [33001-33200] [33201-33400] [33401-33600] [33601-33800] [33801-34000] [34001-34200] [34201-34400] [34401-34600] [34601-34800] [34801-35000] [35001-35200] [35201-35400] [35401-35600] [35601-35800] [35801-36000] [36001-36200] [36201-36400] [36401-36600] [36601-36800] [36801-37000] [37001-37200] [37201-37400] [37401-37600] [37601-37800] [37801-38000] [38001-38200] [38201-38400] [38401-38600] [38601-38800] [38801-39000] [39001-39200] [39201-39400] [39401-39600] [39601-39800] [39801-40000] [40001-40200] [40201-40400] [40401-40600] [40601-40800] [40801-41000] [41001-41200] [41201-41400] [41401-41600] [41601-41800] [41801-42000] [42001-42200] [42201-42400] [42401-42600] [42601-42800] [42801-43000] [43001-43200] [43201-43400] [43401-43600] [43601-43800] [43801-44000] [44001-44200] [44201-44400] [44401-44600] [44601-44800] [44801-45000] [45001-45200] [45201-45400] [45401-45600] [45601-45800] [45801-46000] [46001-46200] [46201-46400] [46401-46600] [46601-46800] [46801-47000] [47001-47200] [47201-47400] [47401-47600] [47601-47800] [47801-48000] [48001-48200] [48201-48400] [48401-48600] [48601-48800] [48801-49000] [49001-49200] [49201-49400] [49401-49600] [49601-49800] [49801-50000] [50001-50200] [50201-50388]

Designation T Tech N Date Right Ascension Declination Apparent Magnitude Star Catalog Site code χ Used A Used M
yr-mo-day precision hr:min:sec precision rms F bias residual deg min sec precision rms F bias residual mag/col rms residual
2004MV2 O C t 2004-06-20.18040 1.000E-05 16:22:28.410 1.500E-01 0.500 F 0.315 0.745 -02° 25' 10.40" 1.000E-01 0.500 F 0.518 0.488 c 691 2.52 Yes No
2004MV2 O C t 2004-06-20.20666 1.000E-05 16:22:36.890 1.500E-01 0.500 F 0.315 -0.921 -02° 28' 22.90" 1.000E-01 0.500 F 0.518 -0.597 c 691 2.53 Yes No
2004MV2 O C t 2004-06-20.26172 1.000E-05 16:22:54.810 1.500E-01 0.500 F 0.315 -0.525 -02° 35' 02.40" 1.000E-01 0.500 F 0.518 -0.207 c 691 1.29 Yes No
2004MB6 O C 2004-06-22.16005 1.000E-05 15:42:32.800 1.500E-01 0.500 F 0.372 0.458 +01° 48' 08.60" 1.000E-01 0.500 F 0.312 -0.353 21.1 V 0.70 -0.07 c 691 1.17 Yes Yes
2004MB6 O C 2004-06-22.19094 1.000E-05 15:42:29.130 1.500E-01 0.500 F 0.372 0.408 +01° 48' 08.40" 1.000E-01 0.500 F 0.312 -0.688 21.1 V 0.70 -0.07 c 691 1.62 Yes Yes
2004MB6 O C 2004-06-22.22198 1.000E-05 15:42:25.430 1.500E-01 0.500 F 0.372 0.211 +01° 48' 09.00" 1.000E-01 0.500 F 0.312 -0.189 20.7 V 0.70 -0.47 c 691 0.57 Yes Yes
2001LO7 O C 2004-06-22.26335 1.000E-05 16:04:35.170 1.500E-01 0.500 F 0.376 0.073 -11° 57' 29.10" 1.000E-01 0.500 F 0.396 -0.102 19.7 V 0.70 0.14 c 691 0.25 Yes Yes
2001XP88 O C 2004-06-22.26911 1.000E-05 15:58:13.200 1.500E-01 0.500 F 0.142 -0.008 -13° 51' 28.60" 1.000E-01 0.500 F 0.310 0.042 20.1 V 0.70 0.00 c 691 0.09 Yes Yes
2001LO7 O C 2004-06-22.29064 1.000E-05 16:04:33.390 1.500E-01 0.500 F 0.376 0.039 -11° 57' 22.40" 1.000E-01 0.500 F 0.396 0.047 19.8 V 0.70 0.24 c 691 0.12 Yes Yes
2001XP88 O C 2004-06-22.29621 1.000E-05 15:58:10.160 1.500E-01 0.500 F 0.142 -0.364 -13° 51' 49.70" 1.000E-01 0.500 F 0.310 -0.098 20.0 V 0.70 -0.10 c 691 0.77 Yes Yes
2001LO7 O C 2004-06-22.32200 1.000E-05 16:04:31.350 1.500E-01 0.500 F 0.376 0.026 -11° 57' 15.00" 1.000E-01 0.500 F 0.396 -0.097 19.7 V 0.70 0.14 c 691 0.20 Yes Yes
2001XP88 O C 2004-06-22.32757 1.000E-05 15:58:06.730 1.500E-01 0.500 F 0.142 0.107 -13° 52' 13.50" 1.000E-01 0.500 F 0.310 0.202 19.9 V 0.70 -0.20 c 691 0.46 Yes Yes
2003AB23 O C 2004-06-22.37184 1.000E-05 20:42:32.140 1.500E-01 0.500 F -0.030 0.115 -05° 54' 55.20" 1.000E-01 0.500 F 0.292 0.040 19.9 V 0.70 0.65 c 691 0.25 Yes Yes
2003AB23 O C 2004-06-22.39679 1.000E-05 20:42:35.440 1.500E-01 0.500 F -0.030 0.274 -05° 55' 11.00" 1.000E-01 0.500 F 0.292 -0.010 19.8 V 0.70 0.55 c 691 0.57 Yes Yes
2003AB23 O C 2004-06-22.42181 1.000E-05 20:42:38.730 1.500E-01 0.500 F -0.030 0.192 -05° 55' 26.90" 1.000E-01 0.500 F 0.292 -0.134 19.8 V 0.70 0.55 c 691 0.49 Yes Yes
2004PE20 O C 2004-06-27.36215 1.000E-05 20:41:03.680 1.500E-01 0.500 F -0.113 0.076 -07° 21' 32.90" 1.000E-01 0.500 F 0.484 -0.003 20.6 V 0.70 0.07 c 691 0.16 Yes Yes
2004PE20 O C 2004-06-27.38954 1.000E-05 20:41:05.180 1.500E-01 0.500 F -0.113 -0.300 -07° 21' 20.00" 1.000E-01 0.500 F 0.484 0.206 20.6 V 0.70 0.07 c 691 0.74 Yes Yes
2004PE20 O C 2004-06-27.42323 1.000E-05 20:41:07.090 1.500E-01 0.500 F -0.113 0.273 -07° 21' 04.50" 1.000E-01 0.500 F 0.484 0.027 21.0 V 0.70 0.48 c 691 0.56 Yes Yes
Toutatis O C 2004-08-20.24778 1.000E-05 22:05:20.520 1.500E-01 0.500 F -0.109 -0.195 -12° 31' 40.00" 1.000E-01 0.500 F 0.386 -0.041 13.5 V 0.70 0.34 c 691 0.40 Yes Yes
2004QR4 O C t 2004-08-20.26297 1.000E-05 21:54:07.780 1.500E-01 0.500 F 0.124 0.860 -09° 01' 28.30" 1.000E-01 0.500 F 0.422 0.583 19 1.00 -0.66 c 691 3.04 Yes Yes
Toutatis O C 2004-08-20.29260 1.000E-05 22:05:19.090 1.500E-01 0.500 F -0.109 0.075 -12° 31' 53.10" 1.000E-01 0.500 F 0.386 -0.048 13.5 V 0.70 0.35 c 691 0.18 Yes Yes
2004QR4 O C t 2004-08-20.30602 1.000E-05 21:55:27.790 1.500E-01 0.500 F 0.124 -0.571 -08° 58' 56.40" 1.000E-01 0.500 F 0.422 0.287 19 1.00 -0.64 c 691 1.49 Yes Yes
Toutatis O C 2004-08-20.31945 1.000E-05 22:05:18.210 1.500E-01 0.500 F -0.109 0.116 -12° 32' 00.70" 1.000E-01 0.500 F 0.386 -0.004 13.5 V 0.70 0.35 c 691 0.23 Yes Yes
2000QJ1 O C 2004-08-20.34711 1.000E-05 21:51:13.390 1.500E-01 0.500 F -0.117 0.106 -02° 30' 54.70" 1.000E-01 0.500 F 0.245 0.180 19.2 V 0.70 0.35 c 691 0.42 Yes Yes
2001US16 O C 2004-08-20.36902 1.000E-05 21:45:50.110 1.500E-01 0.500 F 0.108 -0.009 -08° 10' 41.10" 1.000E-01 0.500 F 0.438 -0.055 18.2 V 0.70 0.38 c 691 0.11 Yes Yes
2004QR4 O C t 2004-08-20.38251 1.000E-05 21:57:52.830 1.500E-01 0.500 F 0.124 -0.659 -08° 54' 10.10" 1.000E-01 0.500 F 0.422 -0.741 c 691 2.34 Yes No
2004QR4 O C t 2004-08-20.38515 1.000E-05 21:57:57.990 1.500E-01 0.500 F 0.124 0.365 -08° 53' 59.20" 1.000E-01 0.500 F 0.422 -0.141 c 691 1.01 Yes No
2000QJ1 O C I 2004-08-20.39107 1.000E-05 21:51:09.300 1.500E-01 0.500 F -0.117 -0.147 -02° 31' 25.00" 1.000E-01 0.500 F 0.245 0.679 19.1 V 0.70 0.25 c 691 1.39 Yes Yes
2004QO5 O C t 2004-08-20.40237 1.000E-05 21:46:36.010 1.500E-01 0.500 F 0.122 -2.180 -05° 23' 34.70" 1.000E-01 0.500 F 0.449 0.442 18 V 1.00 -2.10 c 691 3.35 No Yes
2001US16 O C 2004-08-20.41344 1.000E-05 21:45:47.050 1.500E-01 0.500 F 0.108 -0.094 -08° 11' 26.00" 1.000E-01 0.500 F 0.438 0.010 18.0 V 0.70 0.18 c 691 0.19 Yes Yes
2000QJ1 O C 2004-08-20.41893 1.000E-05 21:51:06.750 1.500E-01 0.500 F -0.117 0.191 -02° 31' 45.30" 1.000E-01 0.500 F 0.245 -0.108 19.1 V 0.70 0.25 c 691 0.44 Yes Yes
2004QO5 O C t 2004-08-20.42740 1.000E-05 21:46:55.570 1.500E-01 0.500 F 0.122 -0.153 -05° 26' 15.60" 1.000E-01 0.500 F 0.449 -0.644 c 691 2.23 Yes No
2001US16 O C 2004-08-20.43892 1.000E-05 21:45:45.350 1.500E-01 0.500 F 0.108 -0.067 -08° 11' 51.70" 1.000E-01 0.500 F 0.438 -0.055 18.0 V 0.70 0.18 c 691 0.17 Yes Yes
2004QR4 O C t 2004-08-21.18873 1.000E-05 22:29:29.550 1.500E-01 0.559 F -0.061 -3.140 -07° 52' 10.00" 1.000E-01 0.559 F 0.364 -1.656 19.6 V 0.70 0.83 c 691 5.69 No Yes
2004QR4 O C t 2004-08-21.20149 1.000E-05 22:30:01.650 1.500E-01 0.559 F -0.061 -0.593 -07° 51' 00.80" 1.000E-01 0.559 F 0.364 -0.348 c 691 1.39 Yes No
2004QR4 O C t 2004-08-21.20926 1.000E-05 22:30:21.140 1.500E-01 0.559 F -0.061 0.105 -07° 50' 19.30" 1.000E-01 0.559 F 0.364 -0.503 c 691 0.96 Yes No
2004QR4 O C t 2004-08-21.22883 1.000E-05 22:31:10.160 1.500E-01 0.559 F -0.061 0.600 -07° 48' 32.60" 1.000E-01 0.559 F 0.364 0.198 c 691 1.26 Yes No
2004QR4 O C t 2004-08-21.23216 1.000E-05 22:31:18.390 1.500E-01 0.559 F -0.061 -1.027 -07° 48' 15.00" 1.000E-01 0.559 F 0.364 -0.396 c 691 2.20 Yes No
2008AZ110 O C 2004-08-22.14069 1.000E-05 20:47:49.640 1.500E-01 0.500 F 0.053 -0.404 -15° 21' 02.60" 1.000E-01 0.500 F 0.348 -0.032 20.1 V 0.70 0.02 c 691 0.87 Yes Yes
2008AZ110 O C 2004-08-22.16768 1.000E-05 20:47:48.560 1.500E-01 0.500 F 0.053 -0.174 -15° 21' 03.60" 1.000E-01 0.500 F 0.348 -0.205 20.2 V 0.70 0.12 c 691 0.57 Yes Yes
2008AZ110 O C 2004-08-22.19457 1.000E-05 20:47:47.450 1.500E-01 0.500 F 0.053 -0.330 -15° 21' 04.30" 1.000E-01 0.500 F 0.348 -0.137 20.1 V 0.70 0.02 c 691 0.77 Yes Yes
Cuno O C 2004-08-23.25645 1.000E-05 21:26:41.990 1.500E-01 0.500 F 0.014 -0.149 -09° 38' 33.90" 1.000E-01 0.500 F 0.532 -0.193 18.3 V 0.70 0.42 c 691 0.49 Yes Yes
Cuno O C 2004-08-23.28357 1.000E-05 21:26:39.870 1.500E-01 0.500 F 0.014 -0.816 -09° 38' 41.00" 1.000E-01 0.500 F 0.532 1.504 17.8 V 0.70 -0.08 c 691 3.42 No Yes
Cuno O C 2004-08-23.31044 1.000E-05 21:26:37.940 1.500E-01 0.500 F 0.014 1.032 -09° 38' 49.90" 1.000E-01 0.500 F 0.532 1.298 17.8 V 0.70 -0.08 c 691 3.31 No Yes
2004QO5 O C t 2004-08-23.32173 1.000E-05 22:38:22.180 1.500E-01 0.500 F -0.090 0.078 -11° 52' 12.30" 1.000E-01 0.500 F 0.508 -0.055 19.8 V 0.70 0.25 c 691 2.37 Yes Yes
2004QO5 O C t 2004-08-23.32439 1.000E-05 22:38:25.730 1.500E-01 0.500 F -0.090 2.348 -11° 52' 39.00" 1.000E-01 0.500 F 0.508 -1.208 19.5 V 0.70 -0.05 c 691 3.80 No Yes
2004QR4 O C t 2004-08-23.33048 1.000E-05 00:29:40.500 1.500E-01 0.500 F -0.233 0.700 -02° 41' 34.00" 1.000E-01 0.500 F 0.497 -0.218 17.6 V 0.70 -1.56 c 691 2.05 Yes Yes
2004QR4 O C t 2004-08-23.33317 1.000E-05 00:29:50.900 1.500E-01 0.500 F -0.233 2.731 -02° 41' 02.60" 1.000E-01 0.500 F 0.497 0.112 18.7 V 0.70 -0.46 c 691 4.47 No Yes
2004QR4 O C t 2004-08-23.33593 1.000E-05 00:30:01.200 1.500E-01 0.500 F -0.233 -0.707 -02° 40' 30.60" 1.000E-01 0.500 F 0.497 0.214 18.5 V 0.70 -0.67 c 691 2.08 Yes Yes
2000RJ34 O C 2004-08-23.34434 1.000E-05 22:48:15.080 1.500E-01 0.500 F -0.029 -0.102 -05° 09' 55.80" 1.000E-01 0.500 F 0.515 -0.209 19.8 V 0.70 -0.18 c 691 0.47 Yes Yes
2004FZ1 O C t 2004-08-23.34727 1.000E-05 22:41:05.720 1.500E-01 0.500 F -0.222 0.450 -06° 21' 42.40" 1.000E-01 0.500 F 0.374 0.217 17.2 V 0.70 0.64 c 691 1.01 Yes Yes
2002PQ142 O C 2004-08-23.35859 1.000E-05 22:36:23.680 1.500E-01 0.500 F -0.055 0.234 -10° 15' 29.30" 1.000E-01 0.500 F 0.591 -0.043 20.0 V 0.70 0.04 c 691 0.48 Yes Yes
2004QJ13 O C t 2004-08-23.36694 1.000E-05 22:43:39.830 1.500E-01 0.500 F -0.028 0.115 -12° 47' 12.10" 1.000E-01 0.500 F 0.519 -0.451 19.3 V 0.70 0.28 c 691 1.11 Yes Yes
2000RJ34 O C 2004-08-23.38055 1.000E-05 22:48:12.780 1.500E-01 0.500 F -0.029 -0.168 -05° 10' 01.60" 1.000E-01 0.500 F 0.515 -0.040 19.8 V 0.70 -0.17 c 691 0.34 Yes Yes
2004FZ1 O C t 2004-08-23.38322 1.000E-05 22:40:59.100 1.500E-01 0.500 F -0.222 0.270 -06° 28' 09.40" 1.000E-01 0.500 F 0.374 -0.326 16.9 V 0.70 0.35 c 691 0.86 Yes Yes
2002PQ142 O C 2004-08-23.39374 1.000E-05 22:36:20.110 1.500E-01 0.500 F -0.055 0.226 -10° 16' 04.90" 1.000E-01 0.500 F 0.591 -0.249 20.1 V 0.70 0.15 c 691 0.68 Yes Yes
2004QJ13 O C t 2004-08-23.40156 1.000E-05 22:44:19.370 1.500E-01 0.500 F -0.028 0.506 -12° 46' 17.50" 1.000E-01 0.500 F 0.519 -0.398 19.0 V 0.70 -0.02 c 691 1.55 Yes Yes
2000RJ34 O C 2004-08-23.40708 1.000E-05 22:48:11.110 1.500E-01 0.500 F -0.029 -0.009 -05° 10' 06.10" 1.000E-01 0.500 F 0.515 -0.173 19.9 V 0.70 -0.07 c 691 0.35 Yes Yes
2004FZ1 O C t 2004-08-23.40981 1.000E-05 22:40:54.300 1.500E-01 0.500 F -0.222 1.250 -06° 32' 55.10" 1.000E-01 0.500 F 0.374 -0.693 17.9 V 0.70 1.35 c 691 2.90 Yes Yes
2002PQ142 O C 2004-08-23.42037 1.000E-05 22:36:17.420 1.500E-01 0.500 F -0.055 0.382 -10° 16' 31.50" 1.000E-01 0.500 F 0.591 -0.060 19.9 V 0.70 -0.05 c 691 0.77 Yes Yes
2004QJ13 O C t 2004-08-23.42846 1.000E-05 22:44:50.140 1.500E-01 0.500 F 0.034 -0.558 -12° 45' 33.10" 1.000E-01 0.500 F 0.522 0.162 c 691 1.49 Yes No
2004QJ13 O C t 2004-08-25.28092 1.000E-05 23:21:28.790 1.500E-01 0.612 F -0.049 -0.025 -11° 50' 34.40" 1.000E-01 0.612 F 0.265 -0.473 19.3 V 0.70 -0.05 c 691 0.83 Yes Yes
2004QJ13 O C t 2004-08-25.28377 1.000E-05 23:21:31.930 1.500E-01 0.612 F -0.049 1.363 -11° 50' 28.40" 1.000E-01 0.612 F 0.265 0.083 19.4 V 0.70 0.05 c 691 2.54 Yes Yes
2004QJ13 O C t 2004-08-25.28675 1.000E-05 23:21:34.990 1.500E-01 0.612 F -0.049 -0.430 -11° 50' 22.80" 1.000E-01 0.612 F 0.265 -0.023 19.2 V 0.70 -0.16 c 691 0.80 Yes Yes
2004QB17 O C 2004-08-25.30768 1.000E-05 22:25:47.870 1.500E-01 0.500 F 0.030 0.122 -02° 10' 19.90" 1.000E-01 0.500 F 0.508 0.048 20.0 V 0.70 -0.10 c 691 0.26 Yes Yes
2004QB17 O C 2004-08-25.33509 1.000E-05 22:25:45.690 1.500E-01 0.500 F 0.030 0.106 -02° 10' 24.50" 1.000E-01 0.500 F 0.508 0.001 20.1 V 0.70 0.00 c 691 0.21 Yes Yes
2004QB17 O C 2004-08-25.36222 1.000E-05 22:25:43.540 1.500E-01 0.500 F 0.030 0.195 -02° 10' 29.00" 1.000E-01 0.500 F 0.508 0.007 20.1 V 0.70 0.00 c 691 0.39 Yes Yes
2004QJ13 O C t 2004-08-25.37384 1.000E-05 23:23:07.360 1.500E-01 0.612 F -0.049 0.391 -11° 47' 30.00" 1.000E-01 0.612 F 0.265 -0.071 19.3 V 0.70 -0.07 c 691 0.73 Yes Yes
2004QJ13 O C t 2004-08-25.37648 1.000E-05 23:23:10.090 1.500E-01 0.612 F -0.049 -0.463 -11° 47' 24.90" 1.000E-01 0.612 F 0.265 -0.398 19.2 V 0.70 -0.17 c 691 1.11 Yes Yes
2004QJ13 O C t 2004-08-25.37916 1.000E-05 23:23:12.930 1.500E-01 0.612 F -0.049 -0.323 -11° 47' 19.40" 1.000E-01 0.612 F 0.265 -0.420 19.1 V 0.70 -0.27 c 691 0.95 Yes Yes
2013RD32 O C 2004-08-25.40742 1.000E-05 23:21:26.330 1.500E-01 0.500 F -0.047 0.062 +00° 00' 19.90" 1.000E-01 0.500 F 0.397 -0.045 20.6 V 0.70 0.31 c 691 0.16 Yes Yes
2013RD32 O C 2004-08-25.43456 1.000E-05 23:21:24.780 1.500E-01 0.500 F -0.047 -0.020 -00° 00' 06.60" 1.000E-01 0.500 F 0.397 -0.008 20.5 V 0.70 0.21 c 691 0.05 Yes Yes
2013RD32 O C 2004-08-25.46212 1.000E-05 23:21:23.200 1.500E-01 0.500 F -0.047 -0.304 -00° 00' 33.60" 1.000E-01 0.500 F 0.397 -0.059 20.5 V 0.70 0.21 c 691 0.68 Yes Yes
2004QG20 O C 2004-09-07.44590 1.000E-05 01:58:25.450 1.500E-01 0.500 F -0.075 0.052 +08° 29' 23.60" 1.000E-01 0.500 F 0.189 -0.116 19.3 V 0.70 0.32 c 691 0.26 Yes Yes
2004QG20 O C 2004-09-07.47284 1.000E-05 01:58:29.560 1.500E-01 0.500 F -0.075 -0.150 +08° 29' 08.10" 1.000E-01 0.500 F 0.189 -0.152 19.2 V 0.70 0.22 c 691 0.43 Yes Yes
2004QG20 O C 2004-09-07.49907 1.000E-05 01:58:33.590 1.500E-01 0.500 F -0.075 -0.059 +08° 28' 53.00" 1.000E-01 0.500 F 0.189 -0.096 19.3 V 0.70 0.32 c 691 0.23 Yes Yes
2004RS25 O C 2004-09-09.42344 1.000E-05 01:45:03.490 1.500E-01 0.500 F -0.003 -0.154 +15° 06' 50.90" 1.000E-01 0.500 F 0.379 -0.142 18.6 V 0.70 0.14 c 691 0.43 Yes Yes
2004RS25 O C 2004-09-09.45207 1.000E-05 01:45:06.140 1.500E-01 0.500 F -0.003 -0.205 +15° 05' 51.00" 1.000E-01 0.500 F 0.379 -0.231 18.6 V 0.70 0.14 c 691 0.63 Yes Yes
2004RS25 O C 2004-09-09.48179 1.000E-05 01:45:08.910 1.500E-01 0.500 F -0.003 -0.210 +15° 04' 48.60" 1.000E-01 0.500 F 0.379 -0.216 18.7 V 0.70 0.24 c 691 0.62 Yes Yes
2004PE20 O C 2004-09-10.19253 1.000E-05 21:57:59.540 1.500E-01 0.500 F -0.007 -0.059 -11° 12' 42.90" 1.000E-01 0.500 F 0.552 -0.139 18.9 V 0.70 0.36 c 691 0.31 Yes Yes
2004RQ109 O C 2004-09-10.19952 1.000E-05 21:59:16.490 1.500E-01 0.500 F 0.155 -0.177 -10° 31' 18.20" 1.000E-01 0.500 F 0.506 0.170 20.6 V 0.70 0.97 c 691 0.51 Yes Yes
2002PQ142 O C 2004-09-10.26123 1.000E-05 22:03:18.480 1.500E-01 0.500 F 0.042 0.009 -15° 35' 00.30" 1.000E-01 0.500 F 0.280 -0.143 19.8 V 0.70 -0.17 c 691 0.29 Yes Yes
2004PE20 O C 2004-09-10.26985 1.000E-05 21:58:06.830 1.500E-01 0.500 F -0.007 -0.018 -11° 13' 27.30" 1.000E-01 0.500 F 0.552 -0.153 18.8 V 0.70 0.26 c 691 0.31 Yes Yes
2004RQ109 O C 2004-09-10.27234 1.000E-05 21:59:19.260 1.500E-01 0.500 F 0.155 -0.023 -10° 35' 58.00" 1.000E-01 0.500 F 0.506 -0.404 20.0 V 0.70 0.37 c 691 0.85 Yes Yes
2002PQ142 O C 2004-09-10.28871 1.000E-05 22:03:15.190 1.500E-01 0.500 F 0.042 0.032 -15° 35' 29.60" 1.000E-01 0.500 F 0.280 -0.067 19.8 V 0.70 -0.17 c 691 0.15 Yes Yes
2004PE20 O C 2004-09-10.29752 1.000E-05 21:58:09.440 1.500E-01 0.500 F -0.007 -0.014 -11° 13' 43.00" 1.000E-01 0.500 F 0.552 -0.308 18.8 V 0.70 0.26 c 691 0.62 Yes Yes
2004RQ109 O C 2004-09-10.30045 1.000E-05 21:59:20.320 1.500E-01 0.500 F 0.155 -0.183 -10° 37' 45.30" 1.000E-01 0.500 F 0.506 -0.051 19.8 V 0.70 0.17 c 691 0.40 Yes Yes
2002PQ142 O C 2004-09-10.31648 1.000E-05 22:03:11.850 1.500E-01 0.500 F 0.042 -0.210 -15° 35' 59.00" 1.000E-01 0.500 F 0.280 0.156 19.8 V 0.70 -0.18 c 691 0.52 Yes Yes
1999GT6 O C 2004-09-10.42542 1.000E-05 01:31:58.930 1.500E-01 0.500 F -0.082 -0.205 +13° 21' 06.50" 1.000E-01 0.500 F 0.391 -0.064 19.0 V 0.70 0.31 c 691 0.43 Yes Yes
1999GT6 O C 2004-09-10.45409 1.000E-05 01:31:57.280 1.500E-01 0.500 F -0.082 -0.293 +13° 20' 50.30" 1.000E-01 0.500 F 0.391 -0.176 19.0 V 0.70 0.31 c 691 0.69 Yes Yes
1999GT6 O C 2004-09-10.48304 1.000E-05 01:31:55.640 1.500E-01 0.500 F -0.082 -0.082 +13° 20' 34.00" 1.000E-01 0.500 F 0.391 -0.144 19.1 V 0.70 0.41 c 691 0.33 Yes Yes
2001US16 O C 2004-09-11.12472 1.000E-05 21:36:12.780 1.500E-01 0.500 F 0.055 0.175 -12° 24' 23.90" 1.000E-01 0.500 F 0.391 -0.034 19.4 V 0.70 -0.06 c 691 0.36 Yes Yes
2001US16 O C 2004-09-11.15185 1.000E-05 21:36:12.690 1.500E-01 0.500 F 0.055 0.303 -12° 24' 34.80" 1.000E-01 0.500 F 0.391 0.075 19.5 V 0.70 0.04 c 691 0.63 Yes Yes
2001US16 O C 2004-09-11.19169 1.000E-05 21:36:12.490 1.500E-01 0.500 F 0.055 -0.003 -12° 24' 50.80" 1.000E-01 0.500 F 0.391 -0.011 19.7 V 0.70 0.24 c 691 0.02 Yes Yes
2002GH1 O C 2004-09-11.31769 1.000E-05 23:20:32.350 1.500E-01 0.500 F -0.068 -0.072 -03° 18' 55.00" 1.000E-01 0.500 F 0.555 0.144 21.2 V 0.70 0.11 c 691 0.32 Yes Yes
2002GH1 O C 2004-09-11.34614 1.000E-05 23:20:31.060 1.500E-01 0.500 F -0.068 0.094 -03° 19' 10.30" 1.000E-01 0.500 F 0.555 -0.188 21.2 V 0.70 0.11 c 691 0.42 Yes Yes
2002GH1 O C 2004-09-11.37377 1.000E-05 23:20:29.760 1.500E-01 0.500 F -0.068 -0.468 -03° 19' 25.00" 1.000E-01 0.500 F 0.555 -0.354 21.6 V 0.70 0.51 c 691 1.18 Yes Yes
2004RH357 O C 2004-09-11.41890 1.000E-05 00:09:47.170 1.500E-01 0.500 F -0.206 0.039 -01° 56' 39.40" 1.000E-01 0.500 F 0.426 -0.035 20.8 V 0.70 -0.04 c 691 0.13 Yes Yes
2004RH357 O C 2004-09-11.44644 1.000E-05 00:09:46.670 1.500E-01 0.500 F -0.206 0.093 -01° 56' 26.10" 1.000E-01 0.500 F 0.426 0.067 20.7 V 0.70 -0.13 c 691 0.28 Yes Yes
2004RH357 O C 2004-09-11.47430 1.000E-05 00:09:46.190 1.500E-01 0.500 F -0.206 -0.132 -01° 56' 12.80" 1.000E-01 0.500 F 0.426 -0.036 20.9 V 0.70 0.07 c 691 0.34 Yes Yes
2003YG118 O C 2004-09-12.14077 1.000E-05 21:26:39.390 1.500E-01 0.500 F -0.056 -0.041 -19° 16' 16.10" 1.000E-01 0.500 F -0.075 -0.163 19.2 V 0.70 0.20 c 691 0.34 Yes Yes
2003YG118 O C 2004-09-12.16793 1.000E-05 21:26:38.370 1.500E-01 0.500 F -0.056 -0.075 -19° 16' 05.30" 1.000E-01 0.500 F -0.075 0.224 19.3 V 0.70 0.30 c 691 0.47 Yes Yes
2003YG118 O C 2004-09-12.20369 1.000E-05 21:26:37.030 1.500E-01 0.500 F -0.056 0.002 -19° 15' 51.80" 1.000E-01 0.500 F -0.075 -0.104 19.2 V 0.70 0.20 c 691 0.21 Yes Yes
2013RD32 O C 2004-09-12.30252 1.000E-05 23:05:15.130 1.500E-01 0.500 F -0.051 0.048 -04° 43' 44.10" 1.000E-01 0.500 F 0.528 -0.009 20.6 V 0.70 0.37 c 691 0.11 Yes Yes
2013RD32 O C 2004-09-12.33045 1.000E-05 23:05:13.640 1.500E-01 0.500 F -0.051 -0.016 -04° 44' 08.60" 1.000E-01 0.500 F 0.528 -0.085 20.4 V 0.70 0.17 c 691 0.18 Yes Yes
2013RD32 O C 2004-09-12.35886 1.000E-05 23:05:12.140 1.500E-01 0.500 F -0.051 0.088 -04° 44' 33.30" 1.000E-01 0.500 F 0.528 0.029 20.7 V 0.70 0.46 c 691 0.20 Yes Yes
2004RS109 O C t 2004-09-12.38068 1.000E-05 23:25:22.460 1.500E-01 0.500 F -0.081 0.935 +08° 31' 29.10" 1.000E-01 0.500 F 0.451 -0.346 c 691 2.02 Yes No
2004RE84 O C 2004-09-12.40227 1.000E-05 23:23:44.130 1.500E-01 0.500 F -0.052 0.096 +01° 33' 14.40" 1.000E-01 0.500 F 0.489 -0.151 19.5 V 0.70 -0.15 c 691 0.36 Yes Yes
2004RS109 O C t 2004-09-12.40824 1.000E-05 23:25:28.550 1.500E-01 0.500 F -0.081 1.053 +08° 26' 26.90" 1.000E-01 0.500 F 0.451 -0.577 c 691 2.44 Yes No
2004RE84 O C 2004-09-12.42999 1.000E-05 23:23:39.370 1.500E-01 0.500 F -0.052 0.116 +01° 33' 16.70" 1.000E-01 0.500 F 0.489 -0.077 19.9 V 0.70 0.25 c 691 0.28 Yes Yes
2004RS109 O C t 2004-09-12.43602 1.000E-05 23:25:34.720 1.500E-01 0.500 F -0.081 0.869 +08° 21' 22.30" 1.000E-01 0.500 F 0.451 -0.310 c 691 1.87 Yes No
2004RE84 O C 2004-09-12.45958 1.000E-05 23:23:34.320 1.500E-01 0.500 F -0.052 0.022 +01° 33' 19.10" 1.000E-01 0.500 F 0.489 -0.026 19.8 V 0.70 0.15 c 691 0.07 Yes Yes
2004RX10 O C 2004-09-13.12128 1.000E-05 22:21:53.050 1.500E-01 0.500 F 0.131 0.035 -06° 18' 38.20" 1.000E-01 0.500 F 0.266 -0.069 19.2 V 0.70 0.17 c 691 0.16 Yes Yes
2004RX10 O C 2004-09-13.15021 1.000E-05 22:21:45.500 1.500E-01 0.500 F 0.131 -0.013 -06° 20' 02.30" 1.000E-01 0.500 F 0.266 0.104 19.1 V 0.70 0.07 c 691 0.21 Yes Yes
2004RX10 O C 2004-09-13.17819 1.000E-05 22:21:38.150 1.500E-01 0.500 F 0.131 -0.025 -06° 21' 24.00" 1.000E-01 0.500 F 0.266 -0.186 19.1 V 0.70 0.07 c 691 0.38 Yes Yes
1998BZ7 O C 2004-09-13.31152 1.000E-05 23:43:33.650 1.500E-01 0.500 F -0.047 -0.201 -12° 25' 30.50" 1.000E-01 0.500 F 0.440 -0.103 20.6 V 0.70 0.09 c 691 0.46 Yes Yes
2004RW164 O C 2004-09-13.31418 1.000E-05 23:47:24.240 1.500E-01 0.500 F -0.035 -0.221 -12° 14' 06.30" 1.000E-01 0.500 F 0.363 -0.232 19.9 V 0.70 -0.37 c 691 0.65 Yes Yes
1998BZ7 O C 2004-09-13.33889 1.000E-05 23:43:31.320 1.500E-01 0.500 F -0.047 -1.024 -12° 25' 45.10" 1.000E-01 0.500 F 0.440 -0.178 20.4 V 0.70 -0.11 c 691 2.10 Yes Yes
2004RW164 O C 2004-09-13.34160 1.000E-05 23:47:21.810 1.500E-01 0.500 F -0.035 0.121 -12° 15' 02.10" 1.000E-01 0.500 F 0.363 -0.234 20.0 V 0.70 -0.27 c 691 0.53 Yes Yes
1998BZ7 O C 2004-09-13.36694 1.000E-05 23:43:29.000 1.500E-01 0.500 F -0.047 -0.899 -12° 25' 59.80" 1.000E-01 0.500 F 0.440 -0.038 20.5 V 0.70 -0.01 c 691 1.82 Yes Yes
2004RW164 O C 2004-09-13.36964 1.000E-05 23:47:19.300 1.500E-01 0.500 F -0.035 0.086 -12° 15' 59.00" 1.000E-01 0.500 F 0.363 -0.126 19.9 V 0.70 -0.37 c 691 0.31 Yes Yes
2004RF84 O C 2004-09-13.38686 1.000E-05 23:41:51.170 1.500E-01 0.500 F -0.140 0.292 +08° 15' 38.30" 1.000E-01 0.500 F 0.328 -0.171 19.3 V 0.70 -0.29 c 691 0.68 Yes Yes
2002TR69 O C 2004-09-13.39214 1.000E-05 23:38:49.410 1.500E-01 0.500 F -0.108 -0.210 +06° 57' 32.10" 1.000E-01 0.500 F 0.390 -0.130 20.0 V 0.70 0.25 c 691 0.50 Yes Yes
2004RF84 O C 2004-09-13.40088 1.000E-05 23:41:49.220 1.500E-01 0.500 F -0.140 -0.118 +08° 15' 47.80" 1.000E-01 0.500 F 0.328 -0.103 19.4 V 0.70 -0.19 c 691 0.32 Yes Yes
2002TR69 O C 2004-09-13.40655 1.000E-05 23:38:47.970 1.500E-01 0.500 F -0.108 0.242 +06° 57' 31.50" 1.000E-01 0.500 F 0.390 -0.236 19.9 V 0.70 0.15 c 691 0.68 Yes Yes
2004RF84 O C 2004-09-13.41502 1.000E-05 23:41:47.290 1.500E-01 0.500 F -0.140 -0.014 +08° 15' 57.20" 1.000E-01 0.500 F 0.328 -0.206 19.5 V 0.70 -0.08 c 691 0.42 Yes Yes
2002TR69 O C 2004-09-13.42052 1.000E-05 23:38:46.550 1.500E-01 0.500 F -0.108 0.299 +06° 57' 31.40" 1.000E-01 0.500 F 0.390 0.149 19.8 V 0.70 0.05 c 691 0.68 Yes Yes
2004RQ109 O C 2004-09-15.14318 1.000E-05 22:03:52.370 1.500E-01 0.500 F 0.042 -0.364 -15° 57' 04.00" 1.000E-01 0.500 F 0.280 0.151 20.2 V 0.70 0.53 c 691 0.82 Yes Yes
2004RQ109 O C 2004-09-15.17630 1.000E-05 22:03:54.280 1.500E-01 0.500 F 0.042 -0.068 -15° 59' 19.00" 1.000E-01 0.500 F 0.280 -0.062 20.0 V 0.70 0.33 c 691 0.19 Yes Yes
2004RQ109 O C 2004-09-15.20713 1.000E-05 22:03:56.030 1.500E-01 0.500 F 0.042 0.114 -16° 01' 24.30" 1.000E-01 0.500 F 0.280 -0.082 19.8 V 0.70 0.13 c 691 0.29 Yes Yes
2004RC252 O C 2004-09-15.22557 1.000E-05 23:47:23.090 1.500E-01 0.500 F 0.005 -0.426 +00° 43' 18.60" 1.000E-01 0.500 F 0.417 -0.424 20.6 V 0.70 0.37 c 691 1.37 Yes Yes
2004RC252 O C 2004-09-15.25395 1.000E-05 23:47:21.170 1.500E-01 0.500 F 0.005 -0.003 +00° 41' 47.90" 1.000E-01 0.500 F 0.417 0.463 20.5 V 0.70 0.27 c 691 1.06 Yes Yes
2004RC252 O C 2004-09-15.28733 1.000E-05 23:47:18.840 1.500E-01 0.500 F 0.005 -0.283 +00° 40' 00.00" 1.000E-01 0.500 F 0.417 0.282 20.1 V 0.70 -0.13 c 691 0.86 Yes Yes
2004SX O C 2004-09-15.31758 1.000E-05 00:17:43.160 1.500E-01 0.612 F -0.082 -0.586 +03° 31' 41.10" 1.000E-01 0.612 F 0.377 -0.405 19.2 V 0.70 0.35 c 691 1.17 Yes Yes
2004SX O C 2004-09-15.32018 1.000E-05 00:17:43.160 1.500E-01 0.612 F -0.082 0.357 +03° 31' 36.80" 1.000E-01 0.612 F 0.377 -0.041 19.2 V 0.70 0.35 c 691 0.59 Yes Yes
2004SX O C 2004-09-15.34586 1.000E-05 00:17:42.450 1.500E-01 0.612 F -0.082 -0.935 +03° 30' 50.60" 1.000E-01 0.612 F 0.377 -0.148 19.2 V 0.70 0.35 c 691 1.56 Yes Yes
2004SX O C 2004-09-15.34852 1.000E-05 00:17:42.490 1.500E-01 0.612 F -0.082 0.631 +03° 30' 46.20" 1.000E-01 0.612 F 0.377 0.230 19.7 V 0.70 0.85 c 691 1.11 Yes Yes
2004SX O C 2004-09-15.37270 1.000E-05 00:17:41.810 1.500E-01 0.612 F -0.082 -0.765 +03° 30' 02.30" 1.000E-01 0.612 F 0.377 -0.210 19.2 V 0.70 0.35 c 691 1.31 Yes Yes
2004SX O C 2004-09-15.37527 1.000E-05 00:17:41.790 1.500E-01 0.612 F -0.082 -0.133 +03° 29' 57.80" 1.000E-01 0.612 F 0.377 -0.087 19.2 V 0.70 0.35 c 691 0.26 Yes Yes
2004RS25 O C 2004-09-15.41689 1.000E-05 01:53:49.750 1.500E-01 0.500 F -0.124 -0.187 +11° 44' 19.20" 1.000E-01 0.500 F 0.490 -0.491 18.7 V 0.70 0.18 c 691 1.06 Yes Yes
2004RS25 O C 2004-09-15.44562 1.000E-05 01:53:51.250 1.500E-01 0.500 F -0.011 -0.206 +11° 43' 22.50" 1.000E-01 0.500 F 0.349 -0.425 18.7 V 0.70 0.18 c 691 0.96 Yes Yes
2004RS25 O C 2004-09-15.47455 1.000E-05 01:53:52.770 1.500E-01 0.500 F -0.011 -0.212 +11° 42' 25.30" 1.000E-01 0.500 F 0.349 -0.392 18.7 V 0.70 0.18 c 691 0.90 Yes Yes
2004RX10 O C 2004-09-16.14825 1.000E-05 22:09:21.460 1.500E-01 0.500 F -0.214 0.116 -08° 43' 50.70" 1.000E-01 0.500 F 0.540 -0.231 19.8 V 0.70 0.60 c 691 0.52 Yes Yes
2004PE20 O C 2004-09-16.15888 1.000E-05 22:09:01.490 1.500E-01 0.500 F -0.096 0.012 -12° 03' 20.00" 1.000E-01 0.500 F 0.382 -0.344 19.0 V 0.70 0.30 c 691 0.70 Yes Yes
2004RX10 O C 2004-09-16.18245 1.000E-05 22:09:12.580 1.500E-01 0.500 F -0.049 -0.486 -08° 45' 28.60" 1.000E-01 0.500 F 0.569 -0.182 19.8 V 0.70 0.60 c 691 1.05 Yes Yes
2004PE20 O C 2004-09-16.19291 1.000E-05 22:09:05.060 1.500E-01 0.500 F -0.096 -0.004 -12° 03' 35.40" 1.000E-01 0.500 F 0.382 -0.241 18.9 V 0.70 0.20 c 691 0.49 Yes Yes
2004RX10 O C 2004-09-16.21106 1.000E-05 22:09:05.170 1.500E-01 0.500 F -0.049 -0.088 -08° 46' 50.00" 1.000E-01 0.500 F 0.569 0.177 19.4 V 0.70 0.20 c 691 0.40 Yes Yes
2004PE20 O C 2004-09-16.22173 1.000E-05 22:09:08.060 1.500E-01 0.500 F -0.096 -0.053 -12° 03' 48.20" 1.000E-01 0.500 F 0.382 -0.127 18.9 V 0.70 0.20 c 691 0.28 Yes Yes
2004RG164 O C t 2004-09-16.25041 1.000E-05 23:32:41.160 1.500E-01 0.500 F 0.032 -0.036 -01° 04' 36.70" 1.000E-01 0.500 F 0.562 -0.480 c 691 1.00 Yes No
1991AQ O C 2004-09-16.25041 1.000E-05 23:34:21.230 1.500E-01 0.500 F 0.032 -0.098 -01° 05' 23.50" 1.000E-01 0.500 F 0.562 2.647 17.7 V 0.70 -0.21 c 691 5.28 No Yes
2004RG164 O C t 2004-09-16.27792 1.000E-05 23:33:06.240 1.500E-01 0.500 F 0.032 0.234 -01° 03' 18.10" 1.000E-01 0.500 F 0.562 -0.901 c 691 1.94 Yes No
1991AQ O C 2004-09-16.27792 1.000E-05 23:34:17.420 1.500E-01 0.500 F 0.032 0.020 -01° 05' 47.70" 1.000E-01 0.500 F 0.562 -0.111 18.1 V 0.70 0.19 c 691 0.23 Yes Yes
2004RG164 O C t 2004-09-16.30898 1.000E-05 23:33:34.300 1.500E-01 0.500 F 0.032 0.236 -01° 01' 48.80" 1.000E-01 0.500 F 0.562 -0.502 c 691 1.16 Yes No
1991AQ O C 2004-09-16.30898 1.000E-05 23:34:13.110 1.500E-01 0.500 F 0.032 0.029 -01° 06' 11.90" 1.000E-01 0.500 F 0.562 -0.127 18.1 V 0.70 0.19 c 691 0.26 Yes Yes
2004SA O C t 2004-09-16.34166 1.000E-05 23:49:30.070 1.500E-01 0.500 F 0.031 -0.676 -00° 38' 32.50" 1.000E-01 0.500 F 0.435 -0.076 19.6 V 0.70 0.02 c 691 1.99 Yes Yes
2004SA O C t 2004-09-16.37215 1.000E-05 23:50:20.880 1.500E-01 0.500 F -0.320 0.729 -00° 51' 32.60" 1.000E-01 0.500 F 0.707 -0.175 19.3 V 0.70 -0.28 c 691 2.05 Yes Yes
2004RS109 O C t 2004-09-16.38762 1.000E-05 23:41:44.890 1.500E-01 0.500 F -0.210 0.241 -04° 26' 15.80" 1.000E-01 0.500 F 0.513 -0.445 c 691 1.02 Yes No
2004RS109 O C t 2004-09-16.42002 1.000E-05 23:41:52.730 1.500E-01 0.500 F -0.157 1.193 -04° 32' 47.90" 1.000E-01 0.500 F 0.564 -0.538 c 691 2.65 Yes No
2004RH357 O C 2004-09-17.22212 1.000E-05 00:08:42.760 1.500E-01 0.500 F -0.003 -0.113 -01° 00' 39.10" 1.000E-01 0.500 F 0.364 0.635 19.9 V 0.70 -0.19 c 691 1.58 Yes Yes
2004RH357 O C 2004-09-17.24844 1.000E-05 00:08:41.840 1.500E-01 0.500 F -0.003 0.095 -01° 00' 21.30" 1.000E-01 0.500 F 0.364 -0.232 20.2 V 0.70 0.12 c 691 0.61 Yes Yes
2004RH357 O C 2004-09-17.27496 1.000E-05 00:08:40.850 1.500E-01 0.500 F -0.003 0.017 -01° 00' 02.60" 1.000E-01 0.500 F 0.364 -0.401 20.0 V 0.70 -0.08 c 691 0.98 Yes Yes
2004TX37 O C 2004-09-17.43100 1.000E-05 01:58:10.390 1.500E-01 0.500 F -0.193 0.084 +12° 23' 09.80" 1.000E-01 0.500 F 0.410 0.387 21.6 V 0.70 0.29 c 691 0.80 Yes Yes
2004ST9 O C 2004-09-17.43100 1.000E-05 01:59:07.880 1.500E-01 0.500 F -0.090 0.004 +11° 31' 48.50" 1.000E-01 0.500 F 0.477 -0.695 21.4 V 0.70 -0.20 c 691 1.39 Yes Yes
2004RS25 O C 2004-09-17.43645 1.000E-05 01:55:53.080 1.500E-01 0.500 F -0.110 0.024 +10° 39' 08.10" 1.000E-01 0.500 F 0.550 -0.297 18.7 V 0.70 0.16 c 691 0.60 Yes Yes
2004TX37 O C 2004-09-17.45762 1.000E-05 01:58:09.610 1.500E-01 0.500 F -0.193 0.424 +12° 23' 03.90" 1.000E-01 0.500 F 0.410 -0.284 21.5 V 0.70 0.19 c 691 1.04 Yes Yes
2004ST9 O C 2004-09-17.45762 1.000E-05 01:59:06.650 1.500E-01 0.500 F -0.090 0.048 +11° 31' 34.30" 1.000E-01 0.500 F 0.477 -0.078 21.0 V 0.70 -0.60 c 691 0.18 Yes Yes
2004RS25 O C 2004-09-17.46270 1.000E-05 01:55:54.150 1.500E-01 0.500 F -0.110 0.039 +10° 38' 17.60" 1.000E-01 0.500 F 0.550 -0.366 18.7 V 0.70 0.16 c 691 0.75 Yes Yes
2004TX37 O C 2004-09-17.48387 1.000E-05 01:58:08.800 1.500E-01 0.500 F -0.193 0.148 +12° 22' 58.80" 1.000E-01 0.500 F 0.410 -0.208 21.2 V 0.70 -0.11 c 691 0.51 Yes Yes
2004ST9 O C 2004-09-17.48387 1.000E-05 01:59:05.450 1.500E-01 0.500 F -0.090 0.250 +11° 31' 19.40" 1.000E-01 0.500 F 0.477 -0.335 21.6 V 0.70 0.00 c 691 0.84 Yes Yes
2004RS25 O C 2004-09-17.48903 1.000E-05 01:55:55.250 1.500E-01 0.500 F -0.110 0.129 +10° 37' 26.70" 1.000E-01 0.500 F 0.550 -0.536 18.7 V 0.70 0.16 c 691 1.12 Yes Yes
2004RH357 O C 2004-09-21.42372 1.000E-05 00:06:54.640 1.500E-01 0.500 F 0.085 0.115 -00° 00' 41.40" 1.000E-01 0.500 F 0.319 -0.007 19.4 V 0.70 -0.02 c 691 0.28 Yes Yes
2004RH357 O C 2004-09-21.44995 1.000E-05 00:06:53.350 1.500E-01 0.500 F 0.085 -0.225 -00° 00' 14.40" 1.000E-01 0.500 F 0.319 -0.080 19.5 V 0.70 0.08 c 691 0.59 Yes Yes
2004RH357 O C 2004-09-21.47733 1.000E-05 00:06:52.130 1.500E-01 0.500 F 0.085 0.111 +00° 00' 14.10" 1.000E-01 0.500 F 0.319 0.089 19.6 V 0.70 0.19 c 691 0.35 Yes Yes
1991AQ O C 2004-09-22.11550 1.000E-05 23:22:18.390 1.500E-01 0.500 F -0.153 0.174 -02° 15' 22.00" 1.000E-01 0.500 F 0.487 0.090 18.8 V 0.70 0.35 c 691 0.39 Yes Yes
1991AQ O C 2004-09-22.16553 1.000E-05 23:22:12.680 1.500E-01 0.500 F -0.153 -0.020 -02° 15' 54.80" 1.000E-01 0.500 F 0.487 -0.127 18.9 V 0.70 0.45 c 691 0.26 Yes Yes
1991AQ O C 2004-09-22.19213 1.000E-05 23:22:09.640 1.500E-01 0.500 F -0.153 0.002 -02° 16' 12.10" 1.000E-01 0.500 F 0.487 -0.135 18.7 V 0.70 0.25 c 691 0.27 Yes Yes
2000RJ34 O C 2004-09-22.31594 1.000E-05 22:15:38.230 1.500E-01 0.500 F -0.322 0.374 -06° 42' 57.60" 1.000E-01 0.500 F 0.810 -0.388 20.1 V 0.70 0.09 c 691 1.08 Yes Yes
2000RJ34 O C 2004-09-22.34350 1.000E-05 22:15:36.550 1.500E-01 0.500 F -0.322 0.483 -06° 43' 02.30" 1.000E-01 0.500 F 0.810 -0.498 20.0 V 0.70 -0.01 c 691 1.39 Yes Yes
2000RJ34 O C 2004-09-22.37231 1.000E-05 22:15:34.800 1.500E-01 0.500 F -0.322 0.600 -06° 43' 06.90" 1.000E-01 0.500 F 0.810 -0.314 20.1 V 0.70 0.09 c 691 1.36 Yes Yes
2004WG1 O C 2004-09-22.49325 1.000E-05 05:06:28.990 1.500E-01 0.500 F 0.049 -0.192 +23° 43' 47.60" 1.000E-01 0.500 F 0.325 0.401 20.4 V 0.70 -0.18 c 691 0.89 Yes Yes
2004WG1 O C 2004-09-22.50632 1.000E-05 05:06:29.120 1.500E-01 0.500 F 0.049 -0.120 +23° 43' 52.40" 1.000E-01 0.500 F 0.325 -0.203 20.6 V 0.70 0.02 c 691 0.47 Yes Yes
2004WG1 O C 2004-09-22.51478 1.000E-05 05:06:29.230 1.500E-01 0.500 F 0.049 0.287 +23° 43' 55.90" 1.000E-01 0.500 F 0.325 -0.193 21.0 V 0.70 0.42 c 691 0.69 Yes Yes
2004RX10 O C 2004-09-23.11972 1.000E-05 21:42:24.260 1.500E-01 0.500 F -0.063 0.095 -13° 57' 17.30" 1.000E-01 0.500 F 0.208 0.060 20.0 V 0.70 0.41 c 691 0.23 Yes Yes
2004RX10 O C 2004-09-23.15270 1.000E-05 21:42:16.700 1.500E-01 0.500 F -0.063 -0.116 -13° 58' 41.20" 1.000E-01 0.500 F 0.208 -0.547 19.9 V 0.70 0.31 c 691 1.13 Yes Yes
2004RX10 O C 2004-09-23.17890 1.000E-05 21:42:10.700 1.500E-01 0.500 F -0.063 0.124 -13° 59' 46.80" 1.000E-01 0.500 F 0.208 -0.274 20.1 V 0.70 0.51 c 691 0.61 Yes Yes
1991AQ O C 2004-09-23.19865 1.000E-05 23:20:19.610 1.500E-01 0.500 F 0.014 0.090 -02° 26' 53.30" 1.000E-01 0.500 F 0.386 0.109 18.8 V 0.70 0.26 c 691 0.28 Yes Yes
1991AQ O C 2004-09-23.22599 1.000E-05 23:20:16.530 1.500E-01 0.500 F 0.014 -0.746 -02° 27' 11.20" 1.000E-01 0.500 F 0.386 -0.662 18.6 V 0.70 0.06 c 691 2.01 Yes Yes
1991AQ O C 2004-09-23.25242 1.000E-05 23:20:13.660 1.500E-01 0.500 F 0.014 0.088 -02° 27' 27.10" 1.000E-01 0.500 F 0.386 -0.030 18.8 V 0.70 0.26 c 691 0.19 Yes Yes
2004ST26 O C t 2004-09-23.28461 1.000E-05 23:03:39.170 1.500E-01 0.500 F 0.010 0.340 +02° 56' 31.70" 1.000E-01 0.500 F 0.317 0.166 c 691 1.14 Yes No
2004ST26 O C t 2004-09-23.31118 1.000E-05 23:04:08.260 1.500E-01 0.500 F 0.010 0.097 +03° 02' 25.40" 1.000E-01 0.500 F 0.317 -1.071 c 691 2.48 Yes No
1998FF2 O C 2004-10-04.16286 1.000E-05 00:38:20.330 1.500E-01 0.500 F -0.123 0.090 +08° 14' 50.50" 1.000E-01 0.500 F 0.440 0.089 19.0 V 0.70 0.44 c 691 0.25 Yes Yes
1998FF2 O C 2004-10-04.19134 1.000E-05 00:38:16.730 1.500E-01 0.500 F -0.123 0.023 +08° 14' 57.80" 1.000E-01 0.500 F 0.440 0.067 19.1 V 0.70 0.54 c 691 0.14 Yes Yes
1998FF2 O C 2004-10-04.21880 1.000E-05 00:38:13.250 1.500E-01 0.500 F -0.123 0.078 +08° 15' 04.70" 1.000E-01 0.500 F 0.440 -0.034 19.0 V 0.70 0.44 c 691 0.17 Yes Yes
2004TN O C 2004-10-04.26179 1.000E-05 01:40:45.220 1.500E-01 0.500 F -0.026 0.001 +11° 33' 17.40" 1.000E-01 0.500 F 0.245 -0.012 21.0 V 0.70 0.15 c 691 0.02 Yes Yes
2004TX37 O C 2004-10-04.27002 1.000E-05 01:47:40.890 1.500E-01 0.500 F 0.044 0.532 +11° 13' 39.00" 1.000E-01 0.500 F 0.286 -0.432 21.0 V 0.70 0.12 c 691 1.39 Yes Yes
2004TN O C 2004-10-04.29078 1.000E-05 01:40:41.960 1.500E-01 0.500 F -0.026 -0.232 +11° 33' 15.60" 1.000E-01 0.500 F 0.245 -0.045 21.2 V 0.70 0.35 c 691 0.48 Yes Yes
2004TX37 O C 2004-10-04.29918 1.000E-05 01:47:39.530 1.500E-01 0.500 F 0.044 0.222 +11° 13' 30.40" 1.000E-01 0.500 F 0.286 -0.441 21.4 V 0.70 0.52 c 691 1.00 Yes Yes
2004TN O C 2004-10-04.31882 1.000E-05 01:40:38.840 1.500E-01 0.500 F -0.026 0.137 +11° 33' 13.80" 1.000E-01 0.500 F 0.245 -0.081 21.1 V 0.70 0.25 c 691 0.32 Yes Yes
2004TX37 O C 2004-10-04.32731 1.000E-05 01:47:38.230 1.500E-01 0.500 F 0.044 0.136 +11° 13' 21.60" 1.000E-01 0.500 F 0.286 -0.932 21.3 V 0.70 0.42 c 691 1.90 Yes Yes
2004TT12 O C H 2004-10-04.35921 1.000E-05 02:30:48.070 1.500E-01 0.500 F -0.066 -1.182 +13° 44' 26.70" 1.000E-01 0.500 F 0.512 -0.469 20.5 V 0.70 -0.69 c 691 3.04 Yes Yes

[1-200] [201-400] [401-600] [601-800] [801-1000] [1001-1200] [1201-1400] [1401-1600] [1601-1800] [1801-2000] [2001-2200] [2201-2400] [2401-2600] [2601-2800] [2801-3000] [3001-3200] [3201-3400] [3401-3600] [3601-3800] [3801-4000] [4001-4200] [4201-4400] [4401-4600] [4601-4800] [4801-5000] [5001-5200] [5201-5400] [5401-5600] [5601-5800] [5801-6000] [6001-6200] [6201-6400] [6401-6600] [6601-6800] [6801-7000] [7001-7200] [7201-7400] [7401-7600] [7601-7800] [7801-8000] [8001-8200] [8201-8400] [8401-8600] [8601-8800] [8801-9000] [9001-9200] [9201-9400] [9401-9600] [9601-9800] [9801-10000] [10001-10200] [10201-10400] [10401-10600] [10601-10800] [10801-11000] [11001-11200] [11201-11400] [11401-11600] [11601-11800] [11801-12000] [12001-12200] [12201-12400] [12401-12600] [12601-12800] [12801-13000] [13001-13200] [13201-13400] [13401-13600] [13601-13800] [13801-14000] [14001-14200] [14201-14400] [14401-14600] [14601-14800] [14801-15000] [15001-15200] [15201-15400] [15401-15600] [15601-15800] [15801-16000] [16001-16200] [16201-16400] [16401-16600] [16601-16800] [16801-17000] [17001-17200] [17201-17400] [17401-17600] [17601-17800] [17801-18000] [18001-18200] [18201-18400] [18401-18600] [18601-18800] [18801-19000] [19001-19200] [19201-19400] [19401-19600] [19601-19800] [19801-20000] [20001-20200] [20201-20400] [20401-20600] [20601-20800] [20801-21000] [21001-21200] [21201-21400] [21401-21600] [21601-21800] [21801-22000] [22001-22200] [22201-22400] [22401-22600] [22601-22800] [22801-23000] [23001-23200] [23201-23400] [23401-23600] [23601-23800] [23801-24000] [24001-24200] [24201-24400] [24401-24600] [24601-24800] [24801-25000] [25001-25200] [25201-25400] [25401-25600] [25601-25800] [25801-26000] [26001-26200] [26201-26400] [26401-26600] [26601-26800] [26801-27000] [27001-27200] [27201-27400] [27401-27600] [27601-27800] [27801-28000] [28001-28200] [28201-28400] [28401-28600] [28601-28800] [28801-29000] [29001-29200] [29201-29400] [29401-29600] [29601-29800] [29801-30000] [30001-30200] [30201-30400] [30401-30600] [30601-30800] [30801-31000] [31001-31200] [31201-31400] [31401-31600] [31601-31800] [31801-32000] [32001-32200] [32201-32400] [32401-32600] [32601-32800] [32801-33000] [33001-33200] [33201-33400] [33401-33600] [33601-33800] [33801-34000] [34001-34200] [34201-34400] [34401-34600] [34601-34800] [34801-35000] [35001-35200] [35201-35400] [35401-35600] [35601-35800] [35801-36000] [36001-36200] [36201-36400] [36401-36600] [36601-36800] [36801-37000] [37001-37200] [37201-37400] [37401-37600] [37601-37800] [37801-38000] [38001-38200] [38201-38400] [38401-38600] [38601-38800] [38801-39000] [39001-39200] [39201-39400] [39401-39600] [39601-39800] [39801-40000] [40001-40200] [40201-40400] [40401-40600] [40601-40800] [40801-41000] [41001-41200] [41201-41400] [41401-41600] [41601-41800] [41801-42000] [42001-42200] [42201-42400] [42401-42600] [42601-42800] [42801-43000] [43001-43200] [43201-43400] [43401-43600] [43601-43800] [43801-44000] [44001-44200] [44201-44400] [44401-44600] [44601-44800] [44801-45000] [45001-45200] [45201-45400] [45401-45600] [45601-45800] [45801-46000] [46001-46200] [46201-46400] [46401-46600] [46601-46800] [46801-47000] [47001-47200] [47201-47400] [47401-47600] [47601-47800] [47801-48000] [48001-48200] [48201-48400] [48401-48600] [48601-48800] [48801-49000] [49001-49200] [49201-49400] [49401-49600] [49601-49800] [49801-50000] [50001-50200] [50201-50388]